Airfield :
LOGIN :

Register | Disclaimer

   EN    FR    IT 

 










Legend :    VFR   Marginal VFR   IFR   Intensive IFR   Very Intensive IFR
Visi :
Ceiling :
>= 8 km
>= 3000ft
5 to 8 km
1000 to 3000 ft
1500m to 5 km
500 to 1000 ft
800 to 1500m
200 to 500 ft
< 800m
< 200 ft
Symbols :   Thunderstorms  Fog  Heavy snow  Heavy precipitations  Wind > 20 kt
SIGMETs :     Misc.  Thunderstorms  Icing  Turbulence  Mountain Waves  Volcanic Ashes







- Airport Elevation : 56 ft
- IATA code : ILY
- Download approach charts


EGPI - Islay

CURRENT METAR :
  • 221520Z AUTO 30011KT 270V330 9999 FEW034/// 12/06 Q1015

EXPIRED METARs :
  • 221450Z AUTO 30012KT 270V330 9999 NCD 12/04 Q1015
  • 221420Z AUTO 30013KT 9999 FEW032/// SCT045/// 13/06 Q1015
  • 221350Z AUTO 28013KT 250V310 9999 FEW035/// 12/06 Q1015
  • 221320Z AUTO 29014KT 9999 FEW035/// 13/05 Q1015
  • 221250Z AUTO 29013KT 260V320 9999 FEW037/// 13/06 Q1015
  • 221220Z AUTO 28014KT 9999 FEW035/// 12/04 Q1015

TAF TAF EGPI
Valid from the 22 at 15:00 until the 22 at 18:00 UTC


221404Z 2215/2218 30013KT 9999 SCT025
PROB30
TEMPO 2215/2218 6000 SHRA
No reported NOTAMs for that airfield.
1 SIGMET reported for the Scottish FIR (EGPX) :
 
Severe turbulence
EGPX SIGMET 04 VALID 221400/221800 EGRR
EGPX SCOTTISH FIR SEV TURB FCST WI N5750 W00543 - N5701 E00136 - N5611 E00433 - N5503 E00422 - N5526 W00136 - N5551 W00821 - N5542 W01000 - N5740 W01000 - N5750 W00543 FL220/360 MOV ENE 25KT NC=



MET'MAP, your aeronautical weather chart ! - Copyright ORBIFLY December 2007 - Disclaimer

ORBIFLY MET'MAP TEAM :

Programming & Development : Alexandra Zaïnal
Concept & Development : Baudouin d'Aumeries
Co-Development & Prog : Marc-Olivier Méhu
Technical & hardware support : Manuel Goepfert

Contact : metmap@orbifly.com




SOURCES & CREDITS :

   NOAA